createdAt,value
2017-08-14T00:00:56.973Z,18.10
2017-08-14T00:03:24.460Z,18.10
2017-08-14T00:05:51.962Z,18.10
2017-08-14T00:08:19.473Z,18.10
2017-08-14T00:10:47.041Z,18.10
2017-08-14T00:13:15.317Z,18.00
2017-08-14T00:15:43.591Z,17.90
2017-08-14T00:18:11.152Z,17.90
2017-08-14T00:20:39.409Z,17.90
2017-08-14T00:23:06.885Z,17.90
2017-08-14T00:25:35.119Z,17.90
2017-08-14T00:28:02.582Z,17.90
2017-08-14T00:30:30.060Z,17.90
2017-08-14T00:32:57.622Z,17.90
2017-08-14T00:35:25.916Z,17.80
2017-08-14T00:37:54.163Z,17.80
2017-08-14T00:40:21.604Z,17.80
2017-08-14T00:42:49.085Z,17.80
2017-08-14T00:45:16.650Z,17.70
2017-08-14T00:47:44.205Z,17.70
2017-08-14T00:50:11.754Z,17.70
2017-08-14T00:52:39.334Z,17.70
2017-08-14T00:55:07.563Z,17.70
2017-08-14T00:57:35.024Z,17.70
2017-08-14T01:00:02.566Z,17.70
2017-08-14T01:02:30.064Z,17.70
2017-08-14T01:04:58.347Z,17.60
2017-08-14T01:07:25.906Z,17.60
2017-08-14T01:09:53.358Z,17.60
2017-08-14T01:12:20.921Z,17.60
2017-08-14T01:14:48.393Z,17.60
2017-08-14T01:17:16.704Z,17.60
2017-08-14T01:19:44.216Z,17.50
2017-08-14T01:22:11.773Z,17.60
2017-08-14T01:24:39.434Z,17.50
2017-08-14T01:27:07.717Z,17.50
2017-08-14T01:29:35.984Z,17.40
2017-08-14T01:32:03.467Z,17.40
2017-08-14T01:34:30.997Z,17.40
2017-08-14T01:36:58.605Z,17.40
2017-08-14T01:39:26.062Z,17.30
2017-08-14T01:41:53.619Z,17.30
2017-08-14T01:44:21.242Z,17.30
2017-08-14T01:46:49.485Z,17.30
2017-08-14T01:49:17.045Z,17.30
2017-08-14T01:51:44.525Z,17.30
2017-08-14T01:54:12.129Z,17.30
2017-08-14T01:56:39.594Z,17.30
2017-08-14T01:59:07.052Z,17.30
2017-08-14T02:01:34.574Z,17.30
2017-08-14T02:04:02.824Z,17.30
2017-08-14T02:06:30.368Z,17.30
2017-08-14T02:08:57.978Z,17.40
2017-08-14T02:11:25.464Z,17.30
2017-08-14T02:13:52.992Z,17.40
2017-08-14T02:16:20.460Z,17.40
2017-08-14T02:18:48.011Z,17.40
2017-08-14T02:21:15.486Z,17.40
2017-08-14T02:23:42.950Z,17.40
2017-08-14T02:26:10.474Z,17.40
2017-08-14T02:28:38.757Z,17.30
2017-08-14T02:31:06.221Z,17.30
2017-08-14T02:33:33.684Z,17.40
2017-08-14T02:36:01.145Z,17.40
2017-08-14T02:38:28.615Z,17.40
2017-08-14T02:40:56.160Z,17.40
2017-08-14T02:43:23.682Z,17.40
2017-08-14T02:45:51.922Z,17.50
2017-08-14T02:48:19.375Z,17.40
2017-08-14T02:50:46.839Z,17.50
2017-08-14T02:53:14.311Z,17.50
2017-08-14T02:55:41.774Z,17.50
2017-08-14T02:58:10.006Z,17.50
2017-08-14T03:00:37.487Z,17.40
2017-08-14T03:03:04.957Z,17.50
2017-08-14T03:05:32.514Z,17.50
2017-08-14T03:07:59.977Z,17.60
2017-08-14T03:10:28.243Z,17.60
2017-08-14T03:12:55.810Z,17.50
2017-08-14T03:15:23.369Z,17.60
2017-08-14T03:17:51.689Z,17.60
2017-08-14T03:20:19.205Z,17.60
2017-08-14T03:22:47.477Z,17.70
2017-08-14T03:25:15.746Z,17.70
2017-08-14T03:27:43.307Z,17.70
2017-08-14T03:30:10.773Z,17.70
2017-08-14T03:32:39.035Z,17.60
2017-08-14T03:35:06.494Z,17.60
2017-08-14T03:37:33.961Z,17.60
2017-08-14T03:40:02.232Z,17.60
2017-08-14T03:42:29.698Z,17.50
2017-08-14T03:44:57.242Z,17.60
2017-08-14T03:47:24.784Z,17.50
2017-08-14T03:49:52.348Z,17.50
2017-08-14T03:52:19.970Z,17.50
2017-08-14T03:54:47.473Z,17.50
2017-08-14T03:57:15.026Z,17.40
2017-08-14T03:59:42.490Z,17.40
2017-08-14T04:02:10.049Z,17.40
2017-08-14T04:04:37.605Z,17.40
2017-08-14T04:07:05.175Z,17.50
2017-08-14T04:09:33.445Z,17.40
2017-08-14T04:12:00.919Z,17.40
2017-08-14T04:14:29.162Z,17.30
2017-08-14T04:16:56.641Z,17.30
2017-08-14T04:19:24.959Z,17.40
2017-08-14T04:21:52.464Z,17.30
2017-08-14T04:24:20.026Z,17.40
2017-08-14T04:26:47.591Z,17.40
2017-08-14T04:29:15.860Z,17.40
2017-08-14T04:31:43.431Z,17.40
2017-08-14T04:34:11.670Z,17.40
2017-08-14T04:36:39.260Z,17.40
2017-08-14T04:39:06.801Z,17.40
2017-08-14T04:41:34.277Z,17.40
2017-08-14T04:44:02.548Z,17.50
2017-08-14T04:46:30.063Z,17.40
2017-08-14T04:48:57.612Z,17.50
2017-08-14T04:51:25.090Z,17.50
2017-08-14T04:53:52.594Z,17.60
2017-08-14T04:56:20.826Z,17.60
2017-08-14T04:58:48.310Z,17.50
2017-08-14T05:01:15.782Z,17.60
2017-08-14T05:03:44.025Z,17.60
2017-08-14T05:06:11.623Z,17.60
2017-08-14T05:08:39.149Z,17.70
2017-08-14T05:11:06.637Z,17.70
2017-08-14T05:13:34.944Z,17.70
2017-08-14T05:16:02.418Z,17.70
2017-08-14T05:18:29.896Z,17.80
2017-08-14T05:20:57.480Z,17.80
2017-08-14T05:23:25.761Z,17.90
2017-08-14T05:25:54.032Z,18.00
2017-08-14T05:28:22.305Z,18.00
2017-08-14T05:30:50.581Z,18.10
2017-08-14T05:33:18.850Z,18.20
2017-08-14T05:35:47.208Z,18.20
2017-08-14T05:38:14.769Z,18.20
2017-08-14T05:40:42.250Z,18.30
2017-08-14T05:43:10.532Z,18.40
2017-08-14T05:45:38.752Z,18.40
2017-08-14T05:48:06.235Z,18.40
2017-08-14T05:50:33.721Z,18.50
2017-08-14T05:53:02.074Z,18.60
2017-08-14T05:55:29.554Z,18.60
2017-08-14T05:57:57.086Z,18.70
2017-08-14T06:00:24.568Z,18.80
2017-08-14T06:02:52.797Z,18.90
2017-08-14T06:05:20.291Z,18.80
2017-08-14T06:07:48.660Z,19.10
2017-08-14T06:10:16.220Z,19.00
2017-08-14T06:12:44.468Z,19.20
2017-08-14T06:15:11.940Z,19.20
2017-08-14T06:17:39.440Z,19.30
2017-08-14T06:20:06.916Z,19.40
2017-08-14T06:22:34.417Z,19.50
2017-08-14T06:25:01.989Z,19.60
2017-08-14T06:27:30.239Z,19.70
2017-08-14T06:29:57.708Z,19.70
2017-08-14T06:32:25.318Z,19.80
2017-08-14T06:34:52.773Z,19.80
2017-08-14T06:37:20.246Z,19.90
2017-08-14T06:39:47.750Z,19.90
2017-08-14T06:42:16.031Z,20.00
2017-08-14T06:44:44.282Z,20.00
2017-08-14T06:47:11.863Z,20.00
2017-08-14T06:49:40.103Z,20.00
2017-08-14T06:52:07.584Z,20.00
2017-08-14T06:54:35.057Z,20.00
2017-08-14T06:57:03.323Z,20.10
2017-08-14T06:59:31.554Z,20.20
2017-08-14T07:01:59.005Z,20.20
2017-08-14T07:04:26.504Z,20.30
2017-08-14T07:06:54.741Z,20.40
2017-08-14T07:09:22.285Z,20.40
2017-08-14T07:11:49.741Z,20.60
2017-08-14T07:14:17.223Z,20.70
2017-08-14T07:16:44.676Z,20.80
2017-08-14T07:19:12.147Z,20.80
2017-08-14T07:21:39.614Z,20.90
2017-08-14T07:24:07.085Z,21.00
2017-08-14T07:26:35.321Z,20.90
2017-08-14T07:29:02.777Z,20.90
2017-08-14T07:31:30.267Z,21.00
2017-08-14T07:33:57.824Z,21.10
2017-08-14T07:36:25.378Z,21.20
2017-08-14T07:38:52.939Z,21.20
2017-08-14T07:41:20.419Z,21.10
2017-08-14T07:43:48.646Z,21.20
2017-08-14T07:46:16.959Z,21.20
2017-08-14T07:48:45.194Z,21.20
2017-08-14T07:51:12.704Z,21.20
2017-08-14T07:53:40.929Z,21.30
2017-08-14T07:56:08.480Z,21.30
2017-08-14T07:58:35.950Z,21.40
2017-08-14T08:01:03.449Z,21.60
2017-08-14T08:03:31.728Z,21.60
2017-08-14T08:05:59.976Z,21.70
2017-08-14T08:08:27.543Z,21.70
2017-08-14T08:10:55.818Z,21.70
2017-08-14T08:13:24.091Z,21.70
2017-08-14T08:15:51.676Z,21.70
2017-08-14T08:18:19.234Z,21.80
2017-08-14T08:20:46.786Z,21.70
2017-08-14T08:23:14.352Z,21.80
2017-08-14T08:25:41.908Z,21.90
2017-08-14T08:28:09.463Z,21.80
2017-08-14T08:30:37.720Z,22.00
2017-08-14T08:33:05.332Z,22.00
2017-08-14T08:35:32.841Z,22.20
2017-08-14T08:38:01.088Z,22.30
2017-08-14T08:40:28.546Z,22.30
2017-08-14T08:42:56.176Z,22.50
2017-08-14T08:45:23.646Z,22.60
2017-08-14T08:47:51.113Z,22.80
2017-08-14T08:50:18.588Z,23.10
2017-08-14T08:52:46.102Z,23.20
2017-08-14T08:55:13.610Z,23.30
2017-08-14T08:57:41.168Z,23.30
2017-08-14T09:00:08.737Z,23.10
2017-08-14T09:02:36.974Z,23.10
2017-08-14T09:05:04.511Z,23.10
2017-08-14T09:07:31.986Z,23.30
2017-08-14T09:09:59.460Z,23.30
2017-08-14T09:12:26.945Z,23.40
2017-08-14T09:14:55.179Z,23.60
2017-08-14T09:17:22.642Z,23.50
2017-08-14T09:19:50.134Z,23.60
2017-08-14T09:22:18.369Z,23.30
2017-08-14T09:24:45.868Z,23.20
2017-08-14T09:27:14.094Z,22.30
2017-08-14T09:29:41.582Z,22.20
2017-08-14T09:32:09.139Z,22.00
2017-08-14T09:34:36.711Z,22.00
2017-08-14T09:37:04.942Z,23.20
2017-08-14T09:39:32.415Z,23.10
2017-08-14T09:41:59.885Z,23.70
2017-08-14T09:44:27.460Z,23.80
2017-08-14T09:46:55.728Z,23.90
2017-08-14T09:49:23.978Z,23.70
2017-08-14T09:51:51.489Z,23.70
2017-08-14T09:54:19.012Z,23.70
2017-08-14T09:56:46.579Z,23.50
2017-08-14T09:59:14.832Z,23.80
2017-08-14T10:01:42.399Z,23.80
2017-08-14T10:04:09.992Z,24.10
2017-08-14T10:06:38.221Z,24.60
2017-08-14T10:09:05.801Z,24.60
2017-08-14T10:11:33.376Z,25.10
2017-08-14T10:14:01.629Z,25.30
2017-08-14T10:16:29.879Z,25.00
2017-08-14T10:18:57.343Z,24.90
2017-08-14T10:21:24.872Z,24.70
2017-08-14T10:23:52.331Z,24.90
2017-08-14T10:26:19.850Z,25.50
2017-08-14T10:28:48.126Z,26.60
2017-08-14T10:31:16.398Z,26.40
2017-08-14T10:33:44.669Z,25.80
2017-08-14T10:36:12.215Z,25.80
2017-08-14T10:38:39.690Z,25.50
2017-08-14T10:41:07.930Z,25.50
2017-08-14T10:43:35.419Z,25.40
2017-08-14T10:46:03.650Z,25.00
2017-08-14T10:48:31.162Z,25.00
2017-08-14T10:50:59.470Z,25.70
2017-08-14T10:53:26.943Z,25.70
2017-08-14T10:55:54.438Z,25.70
2017-08-14T10:58:22.716Z,25.30
2017-08-14T11:00:50.258Z,25.20
2017-08-14T11:03:17.822Z,25.60
2017-08-14T11:05:45.298Z,25.90
2017-08-14T11:08:13.528Z,26.40
2017-08-14T11:10:40.976Z,26.40
2017-08-14T11:13:08.464Z,26.30
2017-08-14T11:15:36.040Z,25.90
2017-08-14T11:18:04.397Z,25.30
2017-08-14T11:20:31.865Z,25.20
2017-08-14T11:22:59.333Z,25.00
2017-08-14T11:25:27.600Z,24.90
2017-08-14T11:27:55.088Z,24.90
2017-08-14T11:30:22.618Z,24.90
2017-08-14T11:32:50.179Z,24.90
2017-08-14T11:35:18.459Z,24.50
2017-08-14T11:37:46.686Z,24.80
2017-08-14T11:40:14.192Z,24.80
2017-08-14T11:42:42.438Z,26.10
2017-08-14T11:45:09.897Z,26.10
2017-08-14T11:47:37.344Z,26.60
2017-08-14T11:50:04.813Z,27.00
2017-08-14T11:52:32.288Z,27.40
2017-08-14T11:55:00.518Z,28.10
2017-08-14T11:57:27.994Z,28.00
2017-08-14T11:59:55.594Z,28.40
2017-08-14T12:02:23.140Z,28.60
2017-08-14T12:04:51.392Z,28.30
2017-08-14T12:07:18.871Z,28.30
2017-08-14T12:09:47.099Z,28.80
2017-08-14T12:12:14.562Z,28.80
2017-08-14T12:14:42.038Z,28.70
2017-08-14T12:17:09.518Z,28.20
2017-08-14T12:19:37.779Z,27.80
2017-08-14T12:22:05.262Z,27.70
2017-08-14T12:24:33.563Z,27.50
2017-08-14T12:27:01.052Z,27.50
2017-08-14T12:29:28.527Z,27.40
2017-08-14T12:31:56.037Z,27.30
2017-08-14T12:34:23.535Z,27.30
2017-08-14T12:36:51.793Z,26.70
2017-08-14T12:39:19.266Z,26.70
2017-08-14T12:41:46.834Z,26.30
2017-08-14T12:44:14.391Z,26.00
2017-08-14T12:46:41.887Z,26.00
2017-08-14T12:49:09.423Z,26.30
2017-08-14T12:51:37.765Z,27.60
2017-08-14T12:54:05.222Z,27.50
2017-08-14T12:56:32.804Z,27.90
2017-08-14T12:59:00.280Z,27.90
2017-08-14T13:01:27.805Z,27.60
2017-08-14T13:03:55.294Z,27.20
2017-08-14T13:06:23.603Z,26.90
2017-08-14T13:08:51.096Z,26.80
2017-08-14T13:11:18.569Z,27.10
2017-08-14T13:13:46.105Z,27.60
2017-08-14T13:16:13.669Z,27.80
2017-08-14T13:18:41.162Z,28.10
2017-08-14T13:21:08.748Z,28.60
2017-08-14T13:23:36.217Z,28.70
2017-08-14T13:26:03.714Z,28.60
2017-08-14T13:28:31.280Z,28.30
2017-08-14T13:30:59.534Z,27.10
2017-08-14T13:33:27.035Z,27.10
2017-08-14T13:35:55.255Z,26.50
2017-08-14T13:38:22.787Z,26.50
2017-08-14T13:40:50.330Z,26.40
2017-08-14T13:43:17.802Z,26.30
2017-08-14T13:45:45.316Z,26.20
2017-08-14T13:48:13.573Z,26.50
2017-08-14T13:50:41.094Z,26.50
2017-08-14T13:53:08.558Z,26.60
2017-08-14T13:55:36.035Z,26.60
2017-08-14T13:58:03.500Z,26.50
2017-08-14T14:00:30.967Z,26.40
2017-08-14T14:02:58.521Z,26.60
2017-08-14T14:05:26.086Z,27.00
2017-08-14T14:07:53.632Z,27.50
2017-08-14T14:10:21.089Z,28.10
2017-08-14T14:12:48.542Z,28.50
2017-08-14T14:15:16.122Z,28.90
2017-08-14T14:17:44.370Z,28.80
2017-08-14T14:20:11.842Z,28.70
2017-08-14T14:22:39.306Z,28.40
2017-08-14T14:25:07.582Z,27.50
2017-08-14T14:27:35.814Z,27.10
2017-08-14T14:30:03.287Z,27.00
2017-08-14T14:32:30.788Z,26.80
2017-08-14T14:34:59.037Z,26.50
2017-08-14T14:37:26.493Z,26.50
2017-08-14T14:39:54.055Z,26.80
2017-08-14T14:42:21.518Z,27.40
2017-08-14T14:44:49.753Z,28.60
2017-08-14T14:47:17.242Z,28.50
2017-08-14T14:49:44.790Z,29.00
2017-08-14T14:52:12.260Z,29.00
2017-08-14T14:54:39.739Z,29.00
2017-08-14T14:57:08.000Z,29.20
2017-08-14T14:59:35.470Z,29.10
2017-08-14T15:02:03.726Z,28.70
2017-08-14T15:04:32.056Z,28.20
2017-08-14T15:06:59.524Z,28.20
2017-08-14T15:09:27.002Z,27.90
2017-08-14T15:11:54.465Z,27.60
2017-08-14T15:14:21.935Z,27.30
2017-08-14T15:16:50.192Z,27.00
2017-08-14T15:19:17.676Z,26.90
2017-08-14T15:21:45.914Z,27.10
2017-08-14T15:24:13.388Z,27.10
2017-08-14T15:26:40.887Z,27.50
2017-08-14T15:29:08.417Z,27.80
2017-08-14T15:31:36.670Z,28.60
2017-08-14T15:34:04.148Z,28.50
2017-08-14T15:36:32.411Z,29.00
2017-08-14T15:39:00.018Z,28.90
2017-08-14T15:41:27.533Z,29.10
2017-08-14T15:43:55.085Z,29.20
2017-08-14T15:46:22.545Z,29.30
2017-08-14T15:48:50.035Z,29.50
2017-08-14T15:51:17.588Z,29.50
2017-08-14T15:53:45.835Z,29.70
2017-08-14T15:56:13.413Z,29.70
2017-08-14T15:58:41.660Z,29.90
2017-08-14T16:01:09.235Z,29.80
2017-08-14T16:03:36.782Z,29.90
2017-08-14T16:06:04.238Z,30.00
2017-08-14T16:08:31.857Z,30.00
2017-08-14T16:10:59.354Z,29.90
2017-08-14T16:13:26.974Z,29.80
2017-08-14T16:15:54.478Z,29.80
2017-08-14T16:18:22.025Z,29.80
2017-08-14T16:20:49.589Z,29.80
2017-08-14T16:23:17.107Z,29.80
2017-08-14T16:25:44.619Z,29.60
2017-08-14T16:28:12.170Z,29.70
2017-08-14T16:30:39.717Z,29.70
2017-08-14T16:33:07.182Z,29.60
2017-08-14T16:35:34.738Z,29.60
2017-08-14T16:38:02.302Z,29.60
2017-08-14T16:40:29.866Z,29.60
2017-08-14T16:42:57.409Z,29.40
2017-08-14T16:45:24.968Z,29.10
2017-08-14T16:47:52.448Z,28.80
2017-08-14T16:50:20.702Z,28.60
2017-08-14T16:52:48.261Z,28.50
2017-08-14T16:55:15.736Z,28.40
2017-08-14T16:57:43.184Z,28.50
2017-08-14T17:00:10.660Z,28.70
2017-08-14T17:02:38.902Z,29.00
2017-08-14T17:05:06.385Z,28.90
2017-08-14T17:07:34.640Z,29.10
2017-08-14T17:10:02.193Z,29.10
2017-08-14T17:12:29.654Z,29.00
2017-08-14T17:14:57.236Z,29.00
2017-08-14T17:17:25.467Z,29.00
2017-08-14T17:19:53.009Z,28.90
2017-08-14T17:22:20.483Z,29.00
2017-08-14T17:24:47.953Z,28.80
2017-08-14T17:27:15.449Z,28.80
2017-08-14T17:29:42.933Z,28.60
2017-08-14T17:32:10.403Z,28.30
2017-08-14T17:34:37.904Z,27.80
2017-08-14T17:37:05.382Z,27.50
2017-08-14T17:39:33.605Z,27.00
2017-08-14T17:42:01.090Z,27.00
2017-08-14T17:44:28.670Z,26.80
2017-08-14T17:46:56.203Z,26.50
2017-08-14T17:49:23.751Z,26.20
2017-08-14T17:51:51.226Z,26.00
2017-08-14T17:54:19.501Z,25.70
2017-08-14T17:56:47.740Z,25.60
2017-08-14T17:59:15.227Z,25.50
2017-08-14T18:01:42.768Z,25.40
2017-08-14T18:04:10.249Z,25.40
2017-08-14T18:06:38.484Z,25.30
2017-08-14T18:09:06.069Z,25.20
2017-08-14T18:11:33.533Z,25.20
2017-08-14T18:14:01.104Z,25.10
2017-08-14T18:16:29.352Z,25.00
2017-08-14T18:18:56.821Z,24.90
2017-08-14T18:21:24.395Z,24.90
2017-08-14T18:23:52.675Z,24.70
2017-08-14T18:26:20.892Z,24.60
2017-08-14T18:28:48.388Z,24.60
2017-08-14T18:31:15.847Z,24.60
2017-08-14T18:33:43.342Z,24.50
2017-08-14T18:36:10.871Z,24.40
2017-08-14T18:38:39.101Z,24.30
2017-08-14T18:41:06.597Z,24.20
2017-08-14T18:43:34.127Z,24.20
2017-08-14T18:46:01.666Z,24.20
2017-08-14T18:48:29.184Z,24.10
2017-08-14T18:50:57.407Z,23.90
2017-08-14T18:53:24.890Z,23.90
2017-08-14T18:55:52.362Z,23.80
2017-08-14T18:58:20.659Z,23.80
2017-08-14T19:00:48.131Z,23.70
2017-08-14T19:03:15.615Z,23.70
2017-08-14T19:05:43.111Z,23.60
2017-08-14T19:08:12.161Z,23.50
2017-08-14T19:10:39.653Z,23.40
2017-08-14T19:13:07.127Z,23.30
2017-08-14T19:15:35.389Z,23.30
2017-08-14T19:18:03.759Z,23.20
2017-08-14T19:20:31.253Z,23.10
2017-08-14T19:22:58.783Z,23.10
2017-08-14T19:25:26.255Z,23.00
2017-08-14T19:27:54.606Z,22.90
2017-08-14T19:30:22.165Z,22.80
2017-08-14T19:32:49.782Z,22.80
2017-08-14T19:35:17.325Z,22.80
2017-08-14T19:37:44.846Z,22.70
2017-08-14T19:40:12.326Z,22.70
2017-08-14T19:42:40.578Z,22.60
2017-08-14T19:45:08.074Z,22.60
2017-08-14T19:47:35.592Z,22.60
2017-08-14T19:50:03.162Z,22.60
2017-08-14T19:52:31.418Z,22.50
2017-08-14T19:54:58.939Z,22.50
2017-08-14T19:57:26.437Z,22.50
2017-08-14T19:59:53.913Z,22.50
2017-08-14T20:02:22.173Z,22.40
2017-08-14T20:04:50.555Z,22.40
2017-08-14T20:07:18.839Z,22.30
2017-08-14T20:09:47.109Z,22.30
2017-08-14T20:12:15.391Z,22.30
2017-08-14T20:14:43.633Z,22.20
2017-08-14T20:17:11.168Z,22.20
2017-08-14T20:19:38.676Z,22.20
2017-08-14T20:22:06.976Z,22.10
2017-08-14T20:24:34.453Z,22.10
2017-08-14T20:27:01.975Z,22.00
2017-08-14T20:29:30.252Z,21.90
2017-08-14T20:31:57.719Z,21.90
2017-08-14T20:34:25.221Z,21.90
2017-08-14T20:36:52.727Z,21.90
2017-08-14T20:39:20.968Z,21.80
2017-08-14T20:41:48.443Z,21.80
2017-08-14T20:44:16.715Z,21.80
2017-08-14T20:46:44.182Z,21.70
2017-08-14T20:49:12.438Z,21.80
2017-08-14T20:51:39.912Z,21.70
2017-08-14T20:54:08.159Z,21.70
2017-08-14T20:56:35.698Z,21.60
2017-08-14T20:59:03.247Z,21.60
2017-08-14T21:01:30.720Z,21.60
2017-08-14T21:03:58.200Z,21.60
2017-08-14T21:06:25.722Z,21.60
2017-08-14T21:08:53.236Z,21.60
2017-08-14T21:11:21.482Z,21.50
2017-08-14T21:13:48.958Z,21.40
2017-08-14T21:16:16.434Z,21.50
2017-08-14T21:18:43.894Z,21.40
2017-08-14T21:21:11.360Z,21.30
2017-08-14T21:23:38.894Z,21.30
2017-08-14T21:26:07.143Z,21.20
2017-08-14T21:28:34.622Z,21.10
2017-08-14T21:31:02.867Z,21.10
2017-08-14T21:33:30.335Z,21.10
2017-08-14T21:35:57.829Z,21.10
2017-08-14T21:38:25.379Z,21.00
2017-08-14T21:40:53.642Z,21.00
2017-08-14T21:43:21.140Z,20.90
2017-08-14T21:45:48.707Z,21.00
2017-08-14T21:48:16.189Z,20.90
2017-08-14T21:50:43.675Z,20.90
2017-08-14T21:53:11.136Z,20.90
2017-08-14T21:55:39.422Z,20.90
2017-08-14T21:58:07.688Z,20.80
2017-08-14T22:00:35.975Z,20.80
2017-08-14T22:03:04.249Z,20.80
2017-08-14T22:05:32.520Z,20.70
2017-08-14T22:08:00.791Z,20.70
2017-08-14T22:10:29.051Z,20.70
2017-08-14T22:12:57.366Z,20.60
2017-08-14T22:15:24.833Z,20.60
2017-08-14T22:17:52.366Z,20.60
2017-08-14T22:20:20.642Z,20.50
2017-08-14T22:22:48.948Z,20.50
2017-08-14T22:25:16.466Z,20.40
2017-08-14T22:27:44.698Z,20.40
2017-08-14T22:30:12.166Z,20.40
2017-08-14T22:32:39.625Z,20.40
2017-08-14T22:35:07.090Z,20.40
2017-08-14T22:37:34.573Z,20.40
2017-08-14T22:40:02.810Z,20.30
2017-08-14T22:42:30.406Z,20.30
2017-08-14T22:44:58.723Z,20.30
2017-08-14T22:47:26.200Z,20.30
2017-08-14T22:49:53.679Z,20.30
2017-08-14T22:52:21.159Z,20.30
2017-08-14T22:54:49.509Z,20.20
2017-08-14T22:57:17.057Z,20.20
2017-08-14T22:59:44.643Z,20.20
2017-08-14T23:02:12.943Z,20.20
2017-08-14T23:04:40.454Z,20.10
2017-08-14T23:07:08.087Z,20.20
2017-08-14T23:09:35.579Z,20.20
2017-08-14T23:12:03.042Z,20.10
2017-08-14T23:14:31.323Z,20.10
2017-08-14T23:16:59.554Z,20.10
2017-08-14T23:19:27.029Z,20.00
2017-08-14T23:21:54.494Z,20.10
2017-08-14T23:24:21.971Z,20.10
2017-08-14T23:26:50.244Z,20.00
2017-08-14T23:29:17.753Z,20.00
2017-08-14T23:31:45.258Z,20.00
2017-08-14T23:34:12.850Z,19.90
2017-08-14T23:36:40.328Z,19.90
2017-08-14T23:39:07.942Z,19.90
2017-08-14T23:41:36.222Z,19.90
2017-08-14T23:44:04.490Z,19.80
2017-08-14T23:46:32.771Z,19.90
2017-08-14T23:49:01.025Z,19.90
2017-08-14T23:51:28.595Z,19.80
2017-08-14T23:53:56.866Z,19.80
2017-08-14T23:56:24.482Z,19.80
2017-08-14T23:58:51.994Z,19.80
